New Lebanon, Ohio
Current Conditions -  °F | °C
As of 12:53 PM on Sunday 21 Dec 2014 (Local Time) from KMGY Reporting Station
Clear Clear  
Wind Chill: 29°   Ceiling: Unl
Heat Index: 35°   Visibility: 8mi
Dew Point: 25°   Wind: 8mph
Humidity: 67%   Direction: 130°SE
Pressure: 30.23"   Gusts: NA
Location:  39.75°N, 84.38°W
Report Text: KMGY 211753Z AUTO 13007KT 8SM CLR 02/M04 A3023 RMK AO2 SLP247 I6000 T00171039 10017 21072 58024
Loading
Personal Weather Stations






























Interactive Weather Map New forecast layout! Learn more

10-Day Weather Forecast

Advertisements
Track Severe Weather on mobile